createdAt,value
2018-05-08T00:00:17.723Z,18.10
2018-05-08T00:02:45.211Z,18.00
2018-05-08T00:05:12.712Z,18.00
2018-05-08T00:07:40.608Z,17.90
2018-05-08T00:10:08.123Z,18.00
2018-05-08T00:12:35.607Z,17.90
2018-05-08T00:15:03.199Z,17.90
2018-05-08T00:17:31.089Z,17.90
2018-05-08T00:19:58.600Z,17.90
2018-05-08T00:22:26.115Z,17.90
2018-05-08T00:24:54.024Z,17.80
2018-05-08T00:27:21.518Z,17.80
2018-05-08T00:29:49.019Z,17.80
2018-05-08T00:32:16.503Z,17.70
2018-05-08T00:34:44.408Z,17.70
2018-05-08T00:37:11.896Z,17.70
2018-05-08T00:39:39.406Z,17.70
2018-05-08T00:42:06.895Z,17.60
2018-05-08T00:44:34.799Z,17.60
2018-05-08T00:47:02.309Z,17.60
2018-05-08T00:49:29.819Z,17.60
2018-05-08T00:51:57.703Z,17.60
2018-05-08T00:54:37.516Z,17.60
2018-05-08T00:57:05.004Z,17.60
2018-05-08T00:59:32.512Z,17.50
2018-05-08T01:02:00.401Z,17.50
2018-05-08T01:04:27.928Z,17.50
2018-05-08T01:06:55.420Z,17.50
2018-05-08T01:09:23.327Z,17.40
2018-05-08T01:11:50.811Z,17.40
2018-05-08T01:14:18.317Z,17.40
2018-05-08T01:16:45.828Z,17.30
2018-05-08T01:19:13.740Z,17.30
2018-05-08T01:21:41.276Z,17.30
2018-05-08T01:24:09.171Z,17.20
2018-05-08T01:26:36.679Z,17.30
2018-05-08T01:29:04.167Z,17.10
2018-05-08T01:31:31.691Z,17.10
2018-05-08T01:33:59.187Z,17.10
2018-05-08T01:36:26.695Z,17.00
2018-05-08T01:38:54.188Z,17.10
2018-05-08T01:41:21.696Z,17.00
2018-05-08T01:43:49.203Z,17.10
2018-05-08T01:46:16.711Z,17.10
2018-05-08T01:48:44.212Z,17.10
2018-05-08T01:51:11.721Z,17.10
2018-05-08T01:53:39.212Z,17.10
2018-05-08T01:56:07.116Z,17.00
2018-05-08T01:58:34.611Z,17.00
2018-05-08T02:01:02.115Z,17.00
2018-05-08T02:03:29.607Z,17.00
2018-05-08T02:05:57.506Z,16.90
2018-05-08T02:08:24.991Z,17.00
2018-05-08T02:10:52.495Z,17.00
2018-05-08T02:13:19.987Z,17.00
2018-05-08T02:15:47.893Z,16.90
2018-05-08T02:18:15.392Z,17.00
2018-05-08T02:20:42.904Z,17.00
2018-05-08T02:23:10.400Z,17.00
2018-05-08T02:25:37.905Z,16.90
2018-05-08T02:28:05.400Z,17.00
2018-05-08T02:30:32.910Z,17.00
2018-05-08T02:33:00.395Z,17.00
2018-05-08T02:35:27.903Z,17.00
2018-05-08T02:37:55.403Z,17.00
2018-05-08T02:40:23.326Z,16.90
2018-05-08T02:42:50.811Z,16.90
2018-05-08T02:45:18.308Z,16.90
2018-05-08T02:47:45.812Z,16.90
2018-05-08T02:50:13.302Z,16.90
2018-05-08T02:52:40.848Z,16.80
2018-05-08T02:55:08.329Z,16.80
2018-05-08T02:57:35.841Z,16.70
2018-05-08T03:00:03.335Z,16.70
2018-05-08T03:02:30.848Z,16.70
2018-05-08T03:04:58.395Z,16.70
2018-05-08T03:07:26.605Z,16.70
2018-05-08T03:09:54.104Z,16.80
2018-05-08T03:12:21.607Z,16.70
2018-05-08T03:14:49.103Z,16.70
2018-05-08T03:17:17.006Z,16.70
2018-05-08T03:19:44.499Z,16.70
2018-05-08T03:22:12.048Z,16.70
2018-05-08T03:24:39.592Z,16.70
2018-05-08T03:27:07.491Z,16.60
2018-05-08T03:29:34.988Z,16.70
2018-05-08T03:32:02.500Z,16.70
2018-05-08T03:34:29.988Z,16.70
2018-05-08T03:36:57.892Z,16.60
2018-05-08T03:39:25.423Z,16.70
2018-05-08T03:41:52.916Z,16.60
2018-05-08T03:44:20.808Z,16.60
2018-05-08T03:46:48.315Z,16.60
2018-05-08T03:49:15.812Z,16.60
2018-05-08T03:51:43.324Z,16.50
2018-05-08T03:54:10.816Z,16.60
2018-05-08T03:56:38.328Z,16.50
2018-05-08T03:59:05.833Z,16.50
2018-05-08T04:01:45.249Z,16.50
2018-05-08T04:04:24.543Z,16.40
2018-05-08T04:07:05.869Z,16.50
2018-05-08T04:09:33.359Z,16.50
2018-05-08T04:12:00.868Z,16.50
2018-05-08T04:14:28.363Z,16.50
2018-05-08T04:16:55.851Z,16.40
2018-05-08T04:19:23.363Z,16.40
2018-05-08T04:21:51.268Z,16.40
2018-05-08T04:24:18.777Z,16.40
2018-05-08T04:26:46.292Z,16.40
2018-05-08T04:29:14.192Z,16.40
2018-05-08T04:31:41.685Z,16.40
2018-05-08T04:34:09.196Z,16.40
2018-05-08T04:36:36.698Z,16.40
2018-05-08T04:39:04.211Z,16.50
2018-05-08T04:41:31.711Z,16.50
2018-05-08T04:43:59.220Z,16.50
2018-05-08T04:46:26.706Z,16.50
2018-05-08T04:48:54.211Z,16.50
2018-05-08T04:51:21.709Z,16.50
2018-05-08T04:53:49.612Z,16.60
2018-05-08T04:56:17.100Z,16.60
2018-05-08T04:58:44.611Z,16.60
2018-05-08T05:01:12.095Z,16.70
2018-05-08T05:03:39.596Z,16.70
2018-05-08T05:06:07.135Z,16.80
2018-05-08T05:08:35.036Z,16.80
2018-05-08T05:11:02.618Z,16.80
2018-05-08T05:13:30.064Z,16.80
2018-05-08T05:15:57.946Z,16.80
2018-05-08T05:18:25.847Z,16.90
2018-05-08T05:20:53.347Z,16.90
2018-05-08T05:23:20.860Z,16.90
2018-05-08T05:25:48.748Z,17.00
2018-05-08T05:28:16.652Z,17.10
2018-05-08T05:30:44.216Z,17.10
2018-05-08T05:33:11.727Z,17.10
2018-05-08T05:35:39.211Z,17.20
2018-05-08T05:38:06.717Z,17.20
2018-05-08T05:40:34.619Z,17.30
2018-05-08T05:43:02.108Z,17.30
2018-05-08T05:45:29.611Z,17.40
2018-05-08T05:47:57.104Z,17.60
2018-05-08T05:50:25.005Z,18.00
2018-05-08T05:52:52.500Z,18.00
2018-05-08T05:55:20.003Z,18.20
2018-05-08T05:57:47.488Z,18.50
2018-05-08T06:00:14.987Z,18.70
2018-05-08T06:02:42.475Z,19.00
2018-05-08T06:05:09.989Z,19.30
2018-05-08T06:07:37.475Z,19.50
2018-05-08T06:10:05.376Z,19.90
2018-05-08T06:12:32.859Z,19.90
2018-05-08T06:15:00.372Z,20.20
2018-05-08T06:17:27.864Z,20.50
2018-05-08T06:19:55.772Z,21.00
2018-05-08T06:22:23.260Z,21.00
2018-05-08T06:24:50.767Z,21.10
2018-05-08T06:27:18.251Z,21.20
2018-05-08T06:29:45.755Z,21.50
2018-05-08T06:32:13.248Z,21.70
2018-05-08T06:34:40.775Z,21.80
2018-05-08T06:37:08.751Z,22.10
2018-05-08T06:39:36.750Z,22.30
2018-05-08T06:42:04.161Z,22.30
2018-05-08T06:44:31.668Z,22.50
2018-05-08T06:46:59.163Z,22.50
2018-05-08T06:49:26.675Z,22.50
2018-05-08T06:51:54.168Z,22.80
2018-05-08T06:54:21.677Z,22.70
2018-05-08T06:56:49.172Z,23.00
2018-05-08T06:59:16.679Z,23.00
2018-05-08T07:01:44.162Z,23.10
2018-05-08T07:04:11.656Z,23.20
2018-05-08T07:06:39.555Z,23.60
2018-05-08T07:09:07.058Z,23.50
2018-05-08T07:11:34.563Z,23.50
2018-05-08T07:14:02.053Z,23.60
2018-05-08T07:16:29.564Z,23.60
2018-05-08T07:18:57.052Z,23.80
2018-05-08T07:21:24.560Z,24.00
2018-05-08T07:23:52.570Z,24.00
2018-05-08T07:26:20.056Z,24.00
2018-05-08T07:28:47.540Z,24.00
2018-05-08T07:31:15.147Z,24.00
2018-05-08T07:33:43.032Z,24.40
2018-05-08T07:36:10.997Z,24.80
2018-05-08T07:38:38.487Z,24.90
2018-05-08T07:41:06.392Z,25.30
2018-05-08T07:43:33.887Z,25.20
2018-05-08T07:46:01.395Z,25.30
2018-05-08T07:48:29.279Z,25.00
2018-05-08T07:50:57.183Z,24.90
2018-05-08T07:53:24.673Z,24.90
2018-05-08T07:55:52.177Z,24.90
2018-05-08T07:58:19.664Z,24.90
2018-05-08T08:00:47.168Z,24.70
2018-05-08T08:03:14.727Z,24.80
2018-05-08T08:05:42.239Z,24.90
2018-05-08T08:08:09.728Z,25.20
2018-05-08T08:10:37.231Z,25.50
2018-05-08T08:13:05.111Z,25.20
2018-05-08T08:15:33.008Z,25.20
2018-05-08T08:18:00.558Z,25.20
2018-05-08T08:20:28.456Z,25.80
2018-05-08T08:22:56.340Z,25.90
2018-05-08T08:25:23.843Z,25.90
2018-05-08T08:27:51.332Z,25.90
2018-05-08T08:30:18.852Z,26.10
2018-05-08T08:32:46.338Z,26.20
2018-05-08T08:35:13.827Z,26.20
2018-05-08T08:37:41.332Z,26.10
2018-05-08T08:40:08.828Z,26.30
2018-05-08T08:42:36.811Z,26.60
2018-05-08T08:45:04.700Z,26.30
2018-05-08T08:47:32.234Z,26.30
2018-05-08T08:50:00.128Z,26.60
2018-05-08T08:52:28.037Z,26.70
2018-05-08T08:54:55.587Z,26.70
2018-05-08T08:57:23.487Z,26.10
2018-05-08T08:59:51.035Z,26.10
2018-05-08T09:02:18.937Z,26.50
2018-05-08T09:04:46.489Z,26.50
2018-05-08T09:07:14.389Z,26.90
2018-05-08T09:09:41.881Z,26.90
2018-05-08T09:12:09.388Z,27.00
2018-05-08T09:14:36.871Z,27.20
2018-05-08T09:17:04.451Z,27.10
2018-05-08T09:19:32.336Z,27.10
2018-05-08T09:22:00.230Z,27.00
2018-05-08T09:24:27.717Z,27.00
2018-05-08T09:26:55.240Z,27.00
2018-05-08T09:29:22.727Z,27.00
2018-05-08T09:31:50.634Z,27.10
2018-05-08T09:34:18.122Z,27.10
2018-05-08T09:36:45.623Z,27.10
2018-05-08T09:39:13.123Z,27.00
2018-05-08T09:41:41.028Z,26.90
2018-05-08T09:44:08.520Z,26.90
2018-05-08T09:46:36.039Z,27.10
2018-05-08T09:49:03.974Z,27.50
2018-05-08T09:51:31.447Z,27.50
2018-05-08T09:53:58.931Z,27.70
2018-05-08T09:56:26.452Z,27.90
2018-05-08T09:58:53.944Z,27.70
2018-05-08T10:01:21.439Z,27.70
2018-05-08T10:03:49.031Z,27.50
2018-05-08T10:06:16.526Z,27.50
2018-05-08T10:08:44.431Z,27.30
2018-05-08T10:11:11.919Z,27.30
2018-05-08T10:13:39.424Z,27.20
2018-05-08T10:16:06.915Z,27.30
2018-05-08T10:18:34.423Z,27.40
2018-05-08T10:21:01.907Z,27.30
2018-05-08T10:23:29.408Z,27.20
2018-05-08T10:25:56.912Z,27.20
2018-05-08T10:28:24.428Z,27.10
2018-05-08T10:30:51.915Z,27.30
2018-05-08T10:33:19.419Z,27.60
2018-05-08T10:35:47.338Z,27.20
2018-05-08T10:38:14.849Z,27.20
2018-05-08T10:40:42.347Z,27.00
2018-05-08T10:43:09.860Z,27.20
2018-05-08T10:45:37.350Z,27.40
2018-05-08T10:48:04.857Z,27.70
2018-05-08T10:50:32.352Z,27.80
2018-05-08T10:52:59.867Z,27.80
2018-05-08T10:55:27.356Z,27.80
2018-05-08T10:57:55.340Z,27.80
2018-05-08T11:00:23.320Z,27.80
2018-05-08T11:02:51.215Z,27.90
2018-05-08T11:05:19.181Z,28.00
2018-05-08T11:07:47.080Z,27.90
2018-05-08T11:10:14.564Z,27.90
2018-05-08T11:12:42.071Z,27.90
2018-05-08T11:15:09.564Z,28.00
2018-05-08T11:17:37.073Z,28.00
2018-05-08T11:20:04.615Z,28.00
2018-05-08T11:22:32.544Z,28.10
2018-05-08T11:25:00.035Z,28.10
2018-05-08T11:27:27.524Z,28.20
2018-05-08T11:29:55.028Z,28.00
2018-05-08T11:32:22.519Z,27.90
2018-05-08T11:34:50.032Z,28.00
2018-05-08T11:37:23.163Z,28.10
2018-05-08T11:39:51.067Z,28.40
2018-05-08T11:42:18.559Z,28.40
2018-05-08T11:44:46.105Z,28.40
2018-05-08T11:47:14.064Z,28.60
2018-05-08T11:49:41.960Z,28.40
2018-05-08T11:52:09.447Z,28.40
2018-05-08T11:54:36.951Z,28.40
2018-05-08T11:57:04.439Z,28.20
2018-05-08T11:59:31.939Z,28.20
2018-05-08T12:01:59.495Z,28.20
2018-05-08T12:04:27.394Z,28.20
2018-05-08T12:06:54.880Z,28.20
2018-05-08T12:09:22.390Z,28.20
2018-05-08T12:11:49.879Z,28.40
2018-05-08T12:14:17.464Z,28.20
2018-05-08T12:16:45.357Z,28.30
2018-05-08T12:19:12.868Z,28.30
2018-05-08T12:21:40.372Z,28.30
2018-05-08T12:24:08.279Z,28.40
2018-05-08T12:26:36.168Z,28.60
2018-05-08T12:29:03.719Z,28.60
2018-05-08T12:31:31.609Z,28.60
2018-05-08T12:33:59.127Z,28.60
2018-05-08T12:36:26.616Z,28.60
2018-05-08T12:38:54.127Z,28.60
2018-05-08T12:41:21.730Z,28.70
2018-05-08T12:43:49.131Z,28.60
2018-05-08T12:46:16.615Z,28.50
2018-05-08T12:48:44.123Z,28.50
2018-05-08T12:51:11.608Z,28.50
2018-05-08T12:53:39.101Z,28.50
2018-05-08T12:56:06.703Z,28.70
2018-05-08T12:58:34.503Z,28.60
2018-05-08T13:01:02.064Z,28.60
2018-05-08T13:03:29.949Z,28.80
2018-05-08T13:05:57.454Z,28.80
2018-05-08T13:08:24.953Z,28.70
2018-05-08T13:10:52.524Z,28.60
2018-05-08T13:13:19.964Z,28.50
2018-05-08T13:15:47.470Z,28.50
2018-05-08T13:18:14.989Z,28.60
2018-05-08T13:20:42.486Z,28.50
2018-05-08T13:23:09.975Z,28.40
2018-05-08T13:25:37.571Z,28.40
2018-05-08T13:28:05.148Z,28.40
2018-05-08T13:30:33.054Z,28.60
2018-05-08T13:33:00.547Z,28.60
2018-05-08T13:35:28.057Z,28.70
2018-05-08T13:37:55.549Z,28.70
2018-05-08T13:40:23.447Z,28.60
2018-05-08T13:42:50.938Z,28.60
2018-05-08T13:45:18.443Z,28.70
2018-05-08T13:47:45.936Z,28.90
2018-05-08T13:50:13.852Z,29.00
2018-05-08T13:52:41.343Z,29.00
2018-05-08T13:55:08.898Z,29.00
2018-05-08T13:57:36.751Z,28.70
2018-05-08T14:00:04.647Z,28.70
2018-05-08T14:02:32.169Z,28.70
2018-05-08T14:04:59.677Z,28.60
2018-05-08T14:07:27.168Z,28.70
2018-05-08T14:09:54.671Z,28.70
2018-05-08T14:12:22.164Z,28.70
2018-05-08T14:14:49.688Z,28.70
2018-05-08T14:17:17.175Z,28.60
2018-05-08T14:19:44.671Z,28.60
2018-05-08T14:22:12.176Z,28.80
2018-05-08T14:24:39.745Z,28.70
2018-05-08T14:27:07.251Z,28.50
2018-05-08T14:29:34.750Z,28.40
2018-05-08T14:32:02.336Z,28.40
2018-05-08T14:34:30.231Z,28.60
2018-05-08T14:36:58.191Z,28.50
2018-05-08T14:39:25.692Z,28.50
2018-05-08T14:41:53.217Z,28.40
2018-05-08T14:44:20.703Z,28.40
2018-05-08T14:46:48.288Z,28.40
2018-05-08T14:49:16.217Z,28.20
2018-05-08T14:51:43.765Z,28.20
2018-05-08T14:54:11.266Z,28.30
2018-05-08T14:56:38.776Z,28.40
2018-05-08T14:59:06.272Z,28.40
2018-05-08T15:01:33.823Z,28.40
2018-05-08T15:04:01.713Z,28.50
2018-05-08T15:06:29.612Z,28.50
2018-05-08T15:08:57.104Z,28.50
2018-05-08T15:11:24.639Z,28.40
2018-05-08T15:13:52.523Z,28.20
2018-05-08T15:16:20.441Z,28.20
2018-05-08T15:18:47.927Z,28.20
2018-05-08T15:21:15.432Z,28.20
2018-05-08T15:23:43.315Z,28.10
2018-05-08T15:26:11.216Z,28.20
2018-05-08T15:28:38.710Z,28.20
2018-05-08T15:31:06.219Z,28.30
2018-05-08T15:33:33.714Z,28.30
2018-05-08T15:36:01.621Z,28.10
2018-05-08T15:38:29.107Z,28.10
2018-05-08T15:40:56.639Z,28.10
2018-05-08T15:43:24.519Z,28.10
2018-05-08T15:45:52.408Z,28.00
2018-05-08T15:48:19.988Z,28.00
2018-05-08T15:50:47.532Z,28.00
2018-05-08T15:53:15.440Z,27.90
2018-05-08T15:55:42.936Z,27.80
2018-05-08T15:58:10.448Z,27.80
2018-05-08T16:00:38.336Z,27.90
2018-05-08T16:03:06.235Z,27.90
2018-05-08T16:05:33.731Z,27.90
2018-05-08T16:08:02.080Z,27.80
2018-05-08T16:10:29.991Z,27.80
2018-05-08T16:12:57.504Z,27.80
2018-05-08T16:15:25.000Z,27.80
2018-05-08T16:17:52.900Z,27.70
2018-05-08T16:20:20.447Z,27.70
2018-05-08T16:22:48.356Z,27.80
2018-05-08T16:25:15.925Z,27.80
2018-05-08T16:27:43.498Z,27.90
2018-05-08T16:30:11.050Z,27.90
2018-05-08T16:32:38.508Z,28.00
2018-05-08T16:35:06.395Z,27.90
2018-05-08T16:37:34.304Z,27.80
2018-05-08T16:40:01.929Z,27.80
2018-05-08T16:42:29.375Z,27.70
2018-05-08T16:44:56.859Z,27.70
2018-05-08T16:47:24.371Z,27.70
2018-05-08T16:49:52.268Z,27.70
2018-05-08T16:52:19.979Z,27.70
2018-05-08T16:54:47.484Z,27.60
2018-05-08T16:57:14.987Z,27.60
2018-05-08T16:59:42.552Z,27.70
2018-05-08T17:02:10.116Z,27.60
2018-05-08T17:04:38.088Z,27.50
2018-05-08T17:07:06.006Z,27.40
2018-05-08T17:09:33.508Z,27.40
2018-05-08T17:12:01.012Z,27.40
2018-05-08T17:14:28.904Z,27.40
2018-05-08T17:16:56.391Z,27.40
2018-05-08T17:19:23.896Z,27.30
2018-05-08T17:21:51.389Z,27.30
2018-05-08T17:24:19.026Z,27.30
2018-05-08T17:26:46.452Z,27.30
2018-05-08T17:29:14.451Z,27.30
2018-05-08T17:31:41.936Z,27.30
2018-05-08T17:34:09.445Z,27.20
2018-05-08T17:36:36.932Z,27.10
2018-05-08T17:39:04.438Z,27.10
2018-05-08T17:41:31.984Z,27.00
2018-05-08T17:43:59.883Z,26.90
2018-05-08T17:46:27.376Z,27.00
2018-05-08T17:48:54.916Z,26.90
2018-05-08T17:51:22.808Z,26.70
2018-05-08T17:53:50.359Z,26.70
2018-05-08T17:56:18.252Z,26.50
2018-05-08T17:58:45.768Z,26.50
2018-05-08T18:01:13.252Z,26.40
2018-05-08T18:03:41.495Z,26.30
2018-05-08T18:06:09.040Z,26.30
2018-05-08T18:08:36.941Z,26.30
2018-05-08T18:11:04.440Z,26.30
2018-05-08T18:13:31.944Z,26.30
2018-05-08T18:15:59.432Z,26.20
2018-05-08T18:18:27.407Z,26.10
2018-05-08T18:20:55.289Z,26.10
2018-05-08T18:23:23.196Z,26.10
2018-05-08T18:25:50.688Z,26.10
2018-05-08T18:28:18.199Z,26.10
2018-05-08T18:30:45.783Z,26.00
2018-05-08T18:33:13.692Z,25.70
2018-05-08T18:35:41.241Z,25.80
2018-05-08T18:38:09.159Z,25.40
2018-05-08T18:40:36.647Z,25.40
2018-05-08T18:43:04.136Z,25.20
2018-05-08T18:45:31.643Z,25.10
2018-05-08T18:47:59.613Z,24.90
2018-05-08T18:50:27.536Z,24.80
2018-05-08T18:52:55.028Z,24.80
2018-05-08T18:55:22.540Z,24.70
2018-05-08T18:57:50.473Z,24.40
2018-05-08T19:00:20.803Z,24.40
2018-05-08T19:02:48.303Z,24.30
2018-05-08T19:05:15.807Z,24.20
2018-05-08T19:07:43.694Z,23.80
2018-05-08T19:10:11.195Z,23.90
2018-05-08T19:12:38.719Z,23.80
2018-05-08T19:15:12.316Z,23.70
2018-05-08T19:17:39.815Z,23.70
2018-05-08T19:20:07.724Z,23.50
2018-05-08T19:22:35.217Z,23.50
2018-05-08T19:25:02.719Z,23.30
2018-05-08T19:27:30.608Z,23.20
2018-05-08T19:30:04.167Z,23.20
2018-05-08T19:32:31.655Z,23.30
2018-05-08T19:35:04.788Z,23.20
2018-05-08T19:37:38.236Z,23.10
2018-05-08T19:40:05.743Z,23.10
2018-05-08T19:42:33.227Z,23.00
2018-05-08T19:45:00.738Z,22.90
2018-05-08T19:47:28.227Z,22.90
2018-05-08T19:49:55.742Z,22.80
2018-05-08T19:52:23.250Z,22.70
2018-05-08T19:54:50.763Z,22.60
2018-05-08T19:57:18.257Z,22.60
2018-05-08T19:59:45.763Z,22.50
2018-05-08T20:02:13.261Z,22.40
2018-05-08T20:04:40.814Z,22.20
2018-05-08T20:07:08.307Z,22.20
2018-05-08T20:09:35.813Z,22.10
2018-05-08T20:12:03.300Z,22.10
2018-05-08T20:14:31.187Z,21.90
2018-05-08T20:16:59.167Z,21.80
2018-05-08T20:19:26.588Z,21.90
2018-05-08T20:21:54.099Z,21.80
2018-05-08T20:24:22.011Z,21.60
2018-05-08T20:26:49.515Z,21.60
2018-05-08T20:29:17.029Z,21.50
2018-05-08T20:31:44.536Z,21.40
2018-05-08T20:34:12.033Z,21.30
2018-05-08T20:36:39.545Z,21.20
2018-05-08T20:39:07.440Z,21.10
2018-05-08T20:41:34.943Z,21.10
2018-05-08T20:44:02.440Z,21.00
2018-05-08T20:46:29.956Z,21.00
2018-05-08T20:48:57.453Z,20.90
2018-05-08T20:51:24.956Z,20.90
2018-05-08T20:53:52.550Z,20.80
2018-05-08T20:56:20.455Z,20.60
2018-05-08T20:58:47.950Z,20.60
2018-05-08T21:01:15.563Z,20.50
2018-05-08T21:03:43.355Z,20.50
2018-05-08T21:06:11.255Z,20.50
2018-05-08T21:08:38.800Z,20.50
2018-05-08T21:11:06.705Z,20.30
2018-05-08T21:13:34.200Z,20.30
2018-05-08T21:16:01.709Z,20.30
2018-05-08T21:18:29.296Z,20.20
2018-05-08T21:20:57.204Z,19.90
2018-05-08T21:23:24.696Z,20.00
2018-05-08T21:25:52.200Z,20.00
2018-05-08T21:28:25.391Z,19.80
2018-05-08T21:30:58.578Z,19.70
2018-05-08T21:33:26.064Z,19.60
2018-05-08T21:35:53.588Z,19.50
2018-05-08T21:38:21.081Z,19.50
2018-05-08T21:40:48.600Z,19.40
2018-05-08T21:43:16.088Z,19.30
2018-05-08T21:45:43.976Z,19.30
2018-05-08T21:48:11.479Z,19.30
2018-05-08T21:50:38.963Z,19.20
2018-05-08T21:53:06.472Z,19.00
2018-05-08T21:55:34.361Z,18.90
2018-05-08T21:58:02.267Z,18.90
2018-05-08T22:00:29.755Z,19.00
2018-05-08T22:02:57.345Z,19.00
2018-05-08T22:05:25.159Z,18.90
2018-05-08T22:07:53.059Z,18.80
2018-05-08T22:10:20.556Z,18.90
2018-05-08T22:12:48.061Z,18.80
2018-05-08T22:15:15.551Z,18.70
2018-05-08T22:17:43.462Z,18.50
2018-05-08T22:20:11.048Z,18.50
2018-05-08T22:22:38.475Z,18.50
2018-05-08T22:25:06.360Z,18.50
2018-05-08T22:27:34.275Z,18.40
2018-05-08T22:30:01.763Z,18.40
2018-05-08T22:32:29.267Z,18.30
2018-05-08T22:34:57.169Z,18.20
2018-05-08T22:37:24.679Z,18.20
2018-05-08T22:39:52.169Z,18.20
2018-05-08T22:42:19.681Z,18.30
2018-05-08T22:44:47.169Z,18.30
2018-05-08T22:47:14.674Z,18.40
2018-05-08T22:49:42.175Z,18.40
2018-05-08T22:52:10.073Z,18.30
2018-05-08T22:54:37.559Z,18.30
2018-05-08T22:57:05.065Z,18.40
2018-05-08T22:59:32.555Z,18.30
2018-05-08T23:02:00.076Z,18.30
2018-05-08T23:04:27.611Z,18.30
2018-05-08T23:06:55.512Z,18.30
2018-05-08T23:09:23.009Z,18.30
2018-05-08T23:11:50.508Z,18.30
2018-05-08T23:14:18.011Z,18.20
2018-05-08T23:16:45.509Z,18.20
2018-05-08T23:19:13.011Z,18.30
2018-05-08T23:21:40.500Z,18.30
2018-05-08T23:24:08.009Z,18.20
2018-05-08T23:26:35.494Z,18.30
2018-05-08T23:29:03.040Z,18.30
2018-05-08T23:31:30.506Z,18.30
2018-05-08T23:33:58.415Z,18.40
2018-05-08T23:36:25.899Z,18.40
2018-05-08T23:38:53.407Z,18.40
2018-05-08T23:41:20.892Z,18.30
2018-05-08T23:43:48.792Z,18.20
2018-05-08T23:46:16.291Z,18.30
2018-05-08T23:48:43.800Z,18.20
2018-05-08T23:51:11.287Z,18.00
2018-05-08T23:53:39.183Z,17.90
2018-05-08T23:56:06.667Z,17.90
2018-05-08T23:58:34.173Z,17.80
